| time (UTC) | temp C | wind direction | speed KPH | gust KPH | rain 1hr cm | rain 24hr cm | rain mn cm | humidity % | barometer mb |
| 20260510032330 | 16 | 55 | 0.0 | 0.0 | 0.00 | 0.00 | 0.00 | 90 | 1021.5 |
| 20260510031825 | 16 | 243 | 0.0 | 3.2 | 0.00 | 0.00 | 0.00 | 91 | 1021.6 |
| 20260510031320 | 16 | 43 | 0.0 | 0.0 | 0.00 | 0.00 | 0.00 | 91 | 1021.3 |
| 20260510030815 | 16 | 87 | 1.6 | 1.6 | 0.00 | 0.00 | 0.00 | 90 | 1021.6 |
| 20260510030312 | 16 | 63 | 0.0 | 1.6 | 0.00 | 0.00 | 0.00 | 90 | 1021.6 |
| 20260510025809 | 16 | 63 | 0.0 | 1.6 | 0.00 | 0.00 | 0.00 | 90 | 1021.4 |
| 20260510025307 | 17 | 37 | 0.0 | 1.6 | 0.00 | 0.00 | 0.00 | 90 | 1021.4 |
| 20260510024803 | 16 | 131 | 0.0 | 3.2 | 0.00 | 0.00 | 0.00 | 89 | 1021.3 |
| 20260510024300 | 17 | 321 | 0.0 | 1.6 | 0.00 | 0.00 | 0.00 | 89 | 1021.3 |
| 20260510023756 | 17 | 180 | 0.0 | 1.6 | 0.00 | 0.00 | 0.00 | 89 | 1021.4 |
| 20260510023253 | 17 | 89 | 0.0 | 1.6 | 0.00 | 0.00 | 0.00 | 88 | 1021.3 |
| 20260510022750 | 17 | 106 | 0.0 | 1.6 | 0.00 | 0.00 | 0.00 | 88 | 1021.3 |
| 20260510022249 | 17 | 32 | 0.0 | 3.2 | 0.00 | 0.00 | 0.00 | 88 | 1021.2 |
| 20260510021748 | 17 | 217 | 0.0 | 3.2 | 0.00 | 0.00 | 0.00 | 88 | 1021.5 |
| 20260510021247 | 17 | 269 | 0.0 | 3.2 | 0.00 | 0.00 | 0.00 | 88 | 1021.2 |
| 20260510020743 | 17 | 18 | 0.0 | 1.6 | 0.00 | 0.00 | 0.00 | 89 | 1021.4 |
| 20260510020242 | 17 | 287 | 1.6 | 1.6 | 0.00 | 0.00 | 0.00 | 89 | 1021.3 |
| 20260510015739 | 17 | 89 | 0.0 | 0.0 | 0.00 | 0.00 | 0.00 | 89 | 1021.5 |
| 20260510015235 | 17 | 89 | 0.0 | 1.6 | 0.00 | 0.00 | 0.00 | 89 | 1021.5 |
| 20260510014730 | 17 | 89 | 0.0 | 0.0 | 0.00 | 0.00 | 0.00 | 89 | 1021.4 |
| 20260510014228 | 17 | 89 | 0.0 | 0.0 | 0.00 | 0.00 | 0.00 | 89 | 1021.2 |
| 20260510013724 | 17 | 37 | 0.0 | 0.0 | 0.00 | 0.00 | 0.00 | 89 | 1021.4 |
| 20260510013219 | 17 | 50 | 0.0 | 3.2 | 0.00 | 0.00 | 0.00 | 88 | 1021.2 |
| 20260510012719 | 17 | 230 | 0.0 | 1.6 | 0.00 | 0.00 | 0.00 | 88 | 1021.3 |
| 20260510012215 | 17 | 89 | 0.0 | 0.0 | 0.00 | 0.00 | 0.00 | 88 | 1021.2 |
| 20260510011715 | 17 | 68 | 3.2 | 3.2 | 0.00 | 0.00 | 0.00 | 88 | 1021.2 |
| 20260510011211 | 17 | 50 | 0.0 | 0.0 | 0.00 | 0.00 | 0.00 | 87 | 1021.1 |
| 20260510010708 | 17 | 129 | 0.0 | 1.6 | 0.00 | 0.00 | 0.00 | 86 | 1021.3 |
| 20260510010204 | 18 | 151 | 0.0 | 1.6 | 0.00 | 0.00 | 0.00 | 86 | 1021.0 |
| 20260510005701 | 18 | 233 | 0.0 | 0.0 | 0.00 | 0.00 | 0.00 | 85 | 1021.0 |
| 20260510005157 | 18 | 233 | 0.0 | 0.0 | 0.00 | 0.00 | 0.00 | 84 | 1020.9 |
| 20260510004655 | 18 | 309 | 0.0 | 0.0 | 0.00 | 0.00 | 0.00 | 84 | 1021.1 |
| 20260510004153 | 18 | 160 | 0.0 | 0.0 | 0.00 | 0.00 | 0.00 | 84 | 1021.3 |
| 20260510003650 | 18 | 49 | 0.0 | 0.0 | 0.00 | 0.00 | 0.00 | 84 | 1021.0 |
| 20260510003146 | 18 | 26 | 1.6 | 3.2 | 0.00 | 0.00 | 0.00 | 84 | 1020.9 |
| 20260510002646 | 18 | 354 | 0.0 | 3.2 | 0.00 | 0.00 | 0.00 | 83 | 1021.0 |
| 20260510002143 | 18 | 286 | 1.6 | 1.6 | 0.00 | 0.00 | 0.00 | 82 | 1020.9 |
| 20260510001640 | 18 | 283 | 1.6 | 3.2 | 0.00 | 0.00 | 0.00 | 82 | 1021.0 |
| 20260510001138 | 18 | 13 | 0.0 | 3.2 | 0.00 | 0.00 | 0.00 | 82 | 1020.9 |
| 20260510000638 | 19 | 257 | 0.0 | 1.6 | 0.00 | 0.00 | 0.00 | 81 | 1020.5 |
| 20260510000137 | 19 | 322 | 3.2 | 3.2 | 0.00 | 0.00 | 0.00 | 80 | 1020.6 |
| 20260509235632 | 19 | 336 | 0.0 | 3.2 | 0.00 | 0.00 | 0.00 | 80 | 1020.4 |
| 20260509235129 | 19 | 281 | 3.2 | 3.2 | 0.00 | 0.00 | 0.00 | 80 | 1020.4 |
| 20260509234625 | 19 | 269 | 0.0 | 3.2 | 0.00 | 0.00 | 0.00 | 80 | 1020.7 |
| 20260509234123 | 19 | 29 | 0.0 | 3.2 | 0.00 | 0.00 | 0.00 | 80 | 1020.4 |
| 20260509233620 | 19 | 272 | 1.6 | 3.2 | 0.00 | 0.00 | 0.00 | 80 | 1020.1 |
| 20260509233118 | 19 | 37 | 0.0 | 0.0 | 0.00 | 0.00 | 0.00 | 80 | 1020.3 |
| 20260509232614 | 20 | 22 | 0.0 | 3.2 | 0.00 | 0.00 | 0.00 | 79 | 1020.3 |
| 20260509232111 | 20 | 269 | 0.0 | 1.6 | 0.00 | 0.00 | 0.00 | 79 | 1020.2 |
| 20260509231608 | 20 | 110 | 0.0 | 0.0 | 0.00 | 0.00 | 0.00 | 79 | 1020.1 |
| 20260509231105 | 20 | 292 | 1.6 | 3.2 | 0.00 | 0.00 | 0.00 | 78 | 1019.9 |
| 20260509230602 | 20 | 329 | 3.2 | 3.2 | 0.00 | 0.00 | 0.00 | 78 | 1019.9 |
| 20260509230059 | 20 | 229 | 0.0 | 0.0 | 0.00 | 0.00 | 0.00 | 78 | 1020.1 |
| 20260509225554 | 20 | 347 | 0.0 | 0.0 | 0.00 | 0.00 | 0.00 | 77 | 1019.5 |
| 20260509225050 | 20 | 295 | 4.8 | 4.8 | 0.00 | 0.00 | 0.00 | 77 | 1019.7 |
| 20260509224546 | 20 | 304 | 0.0 | 3.2 | 0.00 | 0.00 | 0.00 | 77 | 1019.8 |
| 20260509224043 | 20 | 66 | 0.0 | 0.0 | 0.00 | 0.00 | 0.00 | 77 | 1019.5 |
| 20260509223540 | 20 | 17 | 0.0 | 0.0 | 0.00 | 0.00 | 0.00 | 77 | 1019.4 |
| 20260509223038 | 20 | 142 | 0.0 | 0.0 | 0.00 | 0.00 | 0.00 | 76 | 1019.7 |
| 20260509222533 | 20 | 281 | 0.0 | 0.0 | 0.00 | 0.00 | 0.00 | 75 | 1019.5 |
| 20260509222029 | 21 | 289 | 1.6 | 1.6 | 0.00 | 0.00 | 0.00 | 74 | 1019.3 |
| 20260509221525 | 21 | 297 | 0.0 | 1.6 | 0.00 | 0.00 | 0.00 | 73 | 1019.2 |
| 20260509221021 | 21 | 352 | 0.0 | 3.2 | 0.00 | 0.00 | 0.00 | 72 | 1019.1 |
| 20260509220518 | 21 | 315 | 0.0 | 3.2 | 0.00 | 0.00 | 0.00 | 72 | 1019.2 |
| 20260509220014 | 21 | 314 | 0.0 | 3.2 | 0.00 | 0.00 | 0.00 | 72 | 1019.1 |
| 20260509215509 | 21 | 305 | 1.6 | 3.2 | 0.00 | 0.00 | 0.00 | 73 | 1018.9 |
| 20260509215007 | 21 | 301 | 1.6 | 3.2 | 0.00 | 0.00 | 0.00 | 72 | 1019.0 |
| 20260509214504 | 21 | 315 | 1.6 | 3.2 | 0.00 | 0.00 | 0.00 | 72 | 1018.7 |
| 20260509214001 | 21 | 328 | 1.6 | 3.2 | 0.00 | 0.00 | 0.00 | 71 | 1019.0 |
| 20260509213457 | 22 | 296 | 1.6 | 3.2 | 0.00 | 0.00 | 0.00 | 71 | 1018.8 |
| 20260509212954 | 22 | 320 | 3.2 | 4.8 | 0.00 | 0.00 | 0.00 | 70 | 1019.0 |
| 20260509212451 | 22 | 312 | 0.0 | 3.2 | 0.00 | 0.00 | 0.00 | 71 | 1018.9 |
| 20260509211947 | 22 | 282 | 1.6 | 3.2 | 0.00 | 0.00 | 0.00 | 69 | 1018.9 |
| 20260509211443 | 22 | 306 | 1.6 | 3.2 | 0.00 | 0.00 | 0.00 | 68 | 1018.8 |
| 20260509210940 | 23 | 350 | 1.6 | 3.2 | 0.00 | 0.00 | 0.00 | 68 | 1019.0 |
| 20260509210437 | 23 | 307 | 1.6 | 4.8 | 0.00 | 0.00 | 0.00 | 67 | 1018.8 |
| 20260509205932 | 23 | 326 | 3.2 | 4.8 | 0.00 | 0.00 | 0.00 | 66 | 1019.0 |
| 20260509205427 | 24 | 305 | 4.8 | 4.8 | 0.00 | 0.00 | 0.00 | 65 | 1018.9 |
| 20260509204923 | 25 | 280 | 0.0 | 1.6 | 0.00 | 0.00 | 0.00 | 63 | 1018.9 |
| 20260509204419 | 26 | 272 | 1.6 | 1.6 | 0.00 | 0.00 | 0.00 | 61 | 1018.9 |
| 20260509203916 | 26 | 329 | 0.0 | 0.0 | 0.00 | 0.00 | 0.00 | 57 | 1018.7 |
| 20260509203412 | 26 | 102 | 1.6 | 3.2 | 0.00 | 0.00 | 0.00 | 52 | 1019.1 |
| 20260509202910 | 27 | 77 | 0.0 | 3.2 | 0.00 | 0.00 | 0.00 | 52 | 1018.9 |
| 20260509202405 | 27 | 122 | 1.6 | 4.8 | 0.00 | 0.00 | 0.00 | 52 | 1018.9 |
| 20260509201901 | 27 | 124 | 6.4 | 8.0 | 0.00 | 0.00 | 0.00 | 49 | 1018.8 |
| 20260509201356 | 28 | 135 | 4.8 | 6.4 | 0.00 | 0.00 | 0.00 | 50 | 1018.7 |
| 20260509200854 | 28 | 103 | 1.6 | 6.4 | 0.00 | 0.00 | 0.00 | 49 | 1018.8 |
| 20260509200354 | 28 | 144 | 4.8 | 8.0 | 0.00 | 0.00 | 0.00 | 49 | 1018.9 |
| 20260509195851 | 28 | 74 | 4.8 | 8.0 | 0.00 | 0.00 | 0.00 | 47 | 1018.9 |
| 20260509195351 | 28 | 113 | 1.6 | 9.7 | 0.00 | 0.00 | 0.00 | 47 | 1018.7 |
| 20260509194851 | 28 | 147 | 3.2 | 3.2 | 0.00 | 0.00 | 0.00 | 47 | 1018.7 |
| 20260509194347 | 28 | 115 | 4.8 | 8.0 | 0.00 | 0.00 | 0.00 | 48 | 1018.7 |
| 20260509193844 | 28 | 162 | 6.4 | 8.0 | 0.00 | 0.00 | 0.00 | 47 | 1018.7 |
| 20260509193344 | 28 | 47 | 0.0 | 6.4 | 0.00 | 0.00 | 0.00 | 46 | 1018.6 |
| 20260509192840 | 28 | 62 | 4.8 | 6.4 | 0.00 | 0.00 | 0.00 | 44 | 1018.7 |
| 20260509192336 | 28 | 120 | 3.2 | 8.0 | 0.00 | 0.00 | 0.00 | 44 | 1018.7 |
| 20260509191832 | 28 | 118 | 3.2 | 9.7 | 0.00 | 0.00 | 0.00 | 46 | 1018.4 |
| 20260509191327 | 28 | 111 | 3.2 | 9.7 | 0.00 | 0.00 | 0.00 | 46 | 1018.6 |
| 20260509190824 | 28 | 96 | 4.8 | 11.3 | 0.00 | 0.00 | 0.00 | 46 | 1018.4 |
| 20260509190321 | 29 | 57 | 0.0 | 3.2 | 0.00 | 0.00 | 0.00 | 44 | 1018.6 |
| 20260509185818 | 28 | 269 | 0.0 | 4.8 | 0.00 | 0.00 | 0.00 | 44 | 1018.3 |
| 20260509185314 | 29 | 122 | 4.8 | 4.8 | 0.00 | 0.00 | 0.00 | 44 | 1018.6 |
| 20260509184812 | 29 | 89 | 0.0 | 3.2 | 0.00 | 0.00 | 0.00 | 42 | 1018.7 |
| 20260509184309 | 30 | 136 | 4.8 | 9.7 | 0.00 | 0.00 | 0.00 | 42 | 1018.4 |
| 20260509183806 | 29 | 139 | 0.0 | 9.7 | 0.00 | 0.00 | 0.00 | 42 | 1018.3 |
| 20260509183301 | 30 | 74 | 4.8 | 14.5 | 0.00 | 0.00 | 0.00 | 42 | 1018.7 |
| 20260509182756 | 30 | 44 | 0.0 | 3.2 | 0.00 | 0.00 | 0.00 | 42 | 1018.4 |
| 20260509182254 | 29 | 14 | 1.6 | 6.4 | 0.00 | 0.00 | 0.00 | 42 | 1018.4 |
| 20260509181751 | 29 | 170 | 4.8 | 6.4 | 0.00 | 0.00 | 0.00 | 41 | 1018.6 |
| 20260509181249 | 29 | 133 | 3.2 | 6.4 | 0.00 | 0.00 | 0.00 | 42 | 1018.6 |
| 20260509180746 | 29 | 0 | 0.0 | 6.4 | 0.00 | 0.00 | 0.00 | 41 | 1018.6 |
| 20260509180242 | 29 | 71 | 3.2 | 14.5 | 0.00 | 0.00 | 0.00 | 43 | 1018.6 |
| 20260509175738 | 29 | 166 | 1.6 | 9.7 | 0.00 | 0.00 | 0.00 | 42 | 1018.7 |
| 20260509175235 | 28 | 130 | 9.7 | 11.3 | 0.00 | 0.00 | 0.00 | 41 | 1018.7 |
| 20260509174731 | 29 | 159 | 6.4 | 12.9 | 0.00 | 0.00 | 0.00 | 42 | 1018.7 |
| 20260509174226 | 29 | 88 | 8.0 | 9.7 | 0.00 | 0.00 | 0.00 | 41 | 1018.9 |
| 20260509173723 | 29 | 100 | 4.8 | 4.8 | 0.00 | 0.00 | 0.00 | 42 | 1018.8 |
| 20260509173219 | 29 | 128 | 6.4 | 14.5 | 0.00 | 0.00 | 0.00 | 42 | 1019.0 |
| 20260509172715 | 29 | 325 | 3.2 | 9.7 | 0.00 | 0.00 | 0.00 | 41 | 1018.8 |
| 20260509172211 | 30 | 65 | 4.8 | 6.4 | 0.00 | 0.00 | 0.00 | 41 | 1019.0 |
| 20260509171707 | 29 | 116 | 4.8 | 8.0 | 0.00 | 0.00 | 0.00 | 42 | 1018.9 |
| 20260509171203 | 29 | 102 | 6.4 | 11.3 | 0.00 | 0.00 | 0.00 | 44 | 1019.1 |
| 20260509170700 | 30 | 148 | 9.7 | 9.7 | 0.00 | 0.00 | 0.00 | 42 | 1019.4 |
| 20260509170156 | 29 | 102 | 0.0 | 6.4 | 0.00 | 0.00 | 0.00 | 42 | 1019.1 |
| 20260509165655 | 29 | 88 | 8.0 | 9.7 | 0.00 | 0.00 | 0.00 | 43 | 1019.4 |
| 20260509165150 | 29 | 137 | 6.4 | 16.1 | 0.00 | 0.00 | 0.00 | 46 | 1019.4 |
| 20260509164646 | 29 | 98 | 4.8 | 8.0 | 0.00 | 0.00 | 0.00 | 44 | 1019.2 |
| 20260509164142 | 29 | 21 | 4.8 | 8.0 | 0.00 | 0.00 | 0.00 | 43 | 1019.5 |
| 20260509163640 | 29 | 58 | 8.0 | 11.3 | 0.00 | 0.00 | 0.00 | 43 | 1019.7 |
| 20260509163135 | 29 | 21 | 4.8 | 12.9 | 0.00 | 0.00 | 0.00 | 44 | 1019.5 |
| 20260509162633 | 28 | 149 | 0.0 | 12.9 | 0.00 | 0.00 | 0.00 | 45 | 1019.8 |
| 20260509162129 | 30 | 53 | 6.4 | 11.3 | 0.00 | 0.00 | 0.00 | 42 | 1019.7 |
| 20260509161625 | 29 | 38 | 3.2 | 9.7 | 0.00 | 0.00 | 0.00 | 43 | 1020.0 |
| 20260509161120 | 28 | 140 | 1.6 | 8.0 | 0.00 | 0.00 | 0.00 | 45 | 1020.0 |
| 20260509160616 | 28 | 132 | 6.4 | 8.0 | 0.00 | 0.00 | 0.00 | 46 | 1020.0 |
| 20260509160112 | 28 | 126 | 6.4 | 11.3 | 0.00 | 0.00 | 0.00 | 45 | 1020.1 |
| 20260509155608 | 29 | 152 | 6.4 | 8.0 | 0.00 | 0.00 | 0.00 | 47 | 1019.9 |
| 20260509155105 | 28 | 41 | 3.2 | 11.3 | 0.00 | 0.00 | 0.00 | 48 | 1020.3 |
| 20260509154600 | 28 | 120 | 9.7 | 16.1 | 0.00 | 0.00 | 0.00 | 46 | 1020.2 |
| 20260509154058 | 28 | 62 | 6.4 | 9.7 | 0.00 | 0.00 | 0.00 | 48 | 1020.4 |
| 20260509153555 | 28 | 168 | 1.6 | 14.5 | 0.00 | 0.00 | 0.00 | 47 | 1020.3 |
| 20260509153052 | 30 | 110 | 8.0 | 14.5 | 0.00 | 0.00 | 0.00 | 45 | 1020.5 |
| 20260509152548 | 29 | 349 | 4.8 | 6.4 | 0.00 | 0.00 | 0.00 | 47 | 1020.4 |
| 20260509152045 | 28 | 25 | 4.8 | 8.0 | 0.00 | 0.00 | 0.00 | 50 | 1020.5 |
| 20260509151541 | 28 | 181 | 3.2 | 8.0 | 0.00 | 0.00 | 0.00 | 47 | 1020.5 |
| 20260509151039 | 27 | 139 | 8.0 | 8.0 | 0.00 | 0.00 | 0.00 | 49 | 1021.1 |
| 20260509150536 | 28 | 108 | 3.2 | 11.3 | 0.00 | 0.00 | 0.00 | 50 | 1020.9 |
| 20260509150035 | 28 | 1 | 4.8 | 9.7 | 0.00 | 0.00 | 0.00 | 49 | 1020.9 |
| 20260509145530 | 28 | 114 | 3.2 | 8.0 | 0.00 | 0.00 | 0.00 | 50 | 1020.7 |
| 20260509145025 | 27 | 103 | 6.4 | 9.7 | 0.00 | 0.00 | 0.00 | 50 | 1021.0 |
| 20260509144522 | 28 | 19 | 3.2 | 9.7 | 0.00 | 0.00 | 0.00 | 47 | 1021.2 |
| 20260509144020 | 28 | 81 | 6.4 | 11.3 | 0.00 | 0.00 | 0.00 | 50 | 1021.3 |
| 20260509143516 | 28 | 21 | 3.2 | 8.0 | 0.00 | 0.00 | 0.00 | 49 | 1021.4 |
| 20260509143015 | 28 | 143 | 1.6 | 9.7 | 0.00 | 0.00 | 0.00 | 52 | 1021.5 |
| 20260509142510 | 28 | 39 | 6.4 | 11.3 | 0.00 | 0.00 | 0.00 | 51 | 1021.3 |
| 20260509142005 | 27 | 109 | 6.4 | 6.4 | 0.00 | 0.00 | 0.00 | 54 | 1021.5 |
| 20260509141502 | 27 | 57 | 12.9 | 17.7 | 0.00 | 0.00 | 0.00 | 53 | 1021.6 |
| 20260509140959 | 27 | 230 | 0.0 | 6.4 | 0.00 | 0.00 | 0.00 | 53 | 1021.7 |
| 20260509140455 | 28 | 86 | 3.2 | 6.4 | 0.00 | 0.00 | 0.00 | 51 | 1022.0 |
| 20260509135954 | 27 | 318 | 3.2 | 4.8 | 0.00 | 0.00 | 0.00 | 54 | 1021.7 |
| 20260509135450 | 27 | 104 | 4.8 | 11.3 | 0.00 | 0.00 | 0.00 | 54 | 1022.0 |
| 20260509134948 | 27 | 108 | 6.4 | 9.7 | 0.00 | 0.00 | 0.00 | 55 | 1021.7 |
| 20260509134445 | 27 | 133 | 8.0 | 9.7 | 0.00 | 0.00 | 0.00 | 55 | 1022.0 |
| 20260509133943 | 26 | 345 | 3.2 | 6.4 | 0.00 | 0.00 | 0.00 | 56 | 1021.8 |
| 20260509133439 | 26 | 68 | 6.4 | 14.5 | 0.00 | 0.00 | 0.00 | 57 | 1021.8 |
| 20260509132937 | 26 | 61 | 4.8 | 11.3 | 0.00 | 0.00 | 0.00 | 58 | 1022.0 |
| 20260509132435 | 26 | 4 | 3.2 | 12.9 | 0.00 | 0.00 | 0.00 | 60 | 1022.0 |
| 20260509131932 | 26 | 89 | 4.8 | 17.7 | 0.00 | 0.00 | 0.00 | 60 | 1022.2 |
| 20260509131429 | 26 | 68 | 6.4 | 11.3 | 0.00 | 0.00 | 0.00 | 59 | 1022.2 |
| 20260509130926 | 26 | 35 | 4.8 | 12.9 | 0.00 | 0.00 | 0.00 | 59 | 1022.2 |
| 20260509130421 | 26 | 99 | 1.6 | 4.8 | 0.00 | 0.00 | 0.00 | 62 | 1022.1 |
| 20260509125918 | 25 | 74 | 6.4 | 8.0 | 0.00 | 0.00 | 0.00 | 63 | 1022.2 |
| 20260509125415 | 25 | 114 | 6.4 | 12.9 | 0.00 | 0.00 | 0.00 | 63 | 1022.2 |
| 20260509124911 | 25 | 43 | 8.0 | 11.3 | 0.00 | 0.00 | 0.00 | 62 | 1022.4 |
| 20260509124408 | 26 | 25 | 4.8 | 8.0 | 0.00 | 0.00 | 0.00 | 60 | 1022.4 |
| 20260509123906 | 25 | 299 | 0.0 | 11.3 | 0.00 | 0.00 | 0.00 | 62 | 1022.4 |
| 20260509123403 | 25 | 358 | 3.2 | 3.2 | 0.00 | 0.00 | 0.00 | 63 | 1022.2 |
| 20260509122858 | 25 | 43 | 0.0 | 8.0 | 0.00 | 0.00 | 0.00 | 64 | 1022.2 |
| 20260509122355 | 24 | 94 | 1.6 | 9.7 | 0.00 | 0.00 | 0.00 | 66 | 1022.3 |
| 20260509121852 | 25 | 101 | 3.2 | 9.7 | 0.00 | 0.00 | 0.00 | 64 | 1022.2 |
| 20260509121349 | 25 | 71 | 3.2 | 8.0 | 0.00 | 0.00 | 0.00 | 65 | 1022.0 |
| 20260509120848 | 25 | 105 | 4.8 | 9.7 | 0.00 | 0.00 | 0.00 | 64 | 1022.2 |
| 20260509120345 | 24 | 155 | 3.2 | 4.8 | 0.00 | 0.00 | 0.00 | 65 | 1022.1 |
| 20260509115843 | 23 | 241 | 3.2 | 3.2 | 0.00 | 0.00 | 0.00 | 68 | 1022.0 |
| 20260509115340 | 23 | 197 | 1.6 | 3.2 | 0.00 | 0.00 | 0.00 | 68 | 1021.7 |
| 20260509114837 | 23 | 160 | 3.2 | 8.0 | 0.00 | 0.00 | 0.00 | 68 | 1021.8 |
| 20260509114336 | 23 | 126 | 1.6 | 6.4 | 0.00 | 0.00 | 0.00 | 68 | 1021.7 |
| 20260509113835 | 23 | 211 | 3.2 | 4.8 | 0.00 | 0.00 | 0.00 | 68 | 1022.1 |
| 20260509113331 | 23 | 143 | 3.2 | 6.4 | 0.00 | 0.00 | 0.00 | 66 | 1022.0 |
| 20260509112828 | 24 | 154 | 0.0 | 0.0 | 0.00 | 0.00 | 0.00 | 65 | 1021.7 |
| 20260509112325 | 23 | 218 | 0.0 | 3.2 | 0.00 | 0.00 | 0.00 | 67 | 1021.6 |
| 20260509111822 | 23 | 142 | 0.0 | 3.2 | 0.00 | 0.00 | 0.00 | 68 | 1021.7 |
| 20260509111319 | 22 | 156 | 3.2 | 3.2 | 0.00 | 0.00 | 0.00 | 69 | 1021.6 |
| 20260509110817 | 22 | 158 | 1.6 | 3.2 | 0.00 | 0.00 | 0.00 | 70 | 1021.8 |
| 20260509110313 | 22 | 138 | 0.0 | 4.8 | 0.00 | 0.00 | 0.00 | 72 | 1021.7 |
| 20260509105811 | 22 | 138 | 3.2 | 3.2 | 0.00 | 0.00 | 0.00 | 71 | 1021.5 |
| 20260509105309 | 22 | 202 | 0.0 | 1.6 | 0.00 | 0.00 | 0.00 | 69 | 1021.5 |
| 20260509104805 | 23 | 128 | 1.6 | 3.2 | 0.00 | 0.00 | 0.00 | 67 | 1021.5 |
| 20260509104302 | 21 | 93 | 0.0 | 3.2 | 0.00 | 0.00 | 0.00 | 71 | 1021.5 |
| 20260509103800 | 21 | 183 | 0.0 | 1.6 | 0.00 | 0.00 | 0.00 | 73 | 1021.3 |
| 20260509103257 | 20 | 37 | 0.0 | 0.0 | 0.00 | 0.00 | 0.00 | 77 | 1021.5 |
| 20260509102755 | 20 | 309 | 0.0 | 1.6 | 0.00 | 0.00 | 0.00 | 79 | 1021.3 |
| 20260509102253 | 19 | 22 | 0.0 | 1.6 | 0.00 | 0.00 | 0.00 | 82 | 1021.0 |
| 20260509101749 | 18 | 22 | 0.0 | 3.2 | 0.00 | 0.00 | 0.00 | 85 | 1021.0 |
| 20260509101245 | 17 | 230 | 0.0 | 1.6 | 0.00 | 0.00 | 0.00 | 87 | 1021.1 |
| 20260509100742 | 17 | 215 | 0.0 | 1.6 | 0.00 | 0.00 | 0.00 | 86 | 1020.6 |
| 20260509100240 | 17 | 216 | 1.6 | 4.8 | 0.00 | 0.00 | 0.00 | 86 | 1020.7 |
| 20260509095736 | 16 | 79 | 0.0 | 4.8 | 0.00 | 0.00 | 0.00 | 91 | 1020.7 |
| 20260509095233 | 16 | 339 | 3.2 | 6.4 | 0.00 | 0.00 | 0.00 | 94 | 1020.6 |
| 20260509094731 | 15 | 30 | 4.8 | 6.4 | 0.00 | 0.00 | 0.00 | 93 | 1020.4 |
| 20260509094227 | 15 | 5 | 3.2 | 4.8 | 0.00 | 0.00 | 0.00 | 93 | 1020.5 |
| 20260509093725 | 15 | 2 | 3.2 | 6.4 | 0.00 | 0.00 | 0.00 | 93 | 1020.3 |
| 20260509093222 | 15 | 327 | 3.2 | 4.8 | 0.00 | 0.00 | 0.00 | 93 | 1020.1 |
| 20260509092720 | 15 | 296 | 3.2 | 4.8 | 0.00 | 0.00 | 0.00 | 93 | 1020.1 |
| 20260509092218 | 15 | 234 | 3.2 | 3.2 | 0.00 | 0.00 | 0.00 | 93 | 1020.2 |
| 20260509091716 | 15 | 326 | 3.2 | 3.2 | 0.00 | 0.00 | 0.00 | 93 | 1020.1 |
| 20260509091212 | 15 | 76 | 0.0 | 3.2 | 0.00 | 0.00 | 0.00 | 92 | 1019.9 |
| 20260509090710 | 15 | 69 | 0.0 | 1.6 | 0.00 | 0.00 | 0.00 | 92 | 1019.8 |
| 20260509090207 | 16 | 81 | 0.0 | 3.2 | 0.00 | 0.00 | 0.00 | 92 | 1019.9 |
| 20260509085705 | 16 | 311 | 0.0 | 3.2 | 0.00 | 0.00 | 0.00 | 92 | 1020.0 |
| 20260509085201 | 16 | 348 | 1.6 | 3.2 | 0.00 | 0.00 | 0.00 | 92 | 1019.9 |
| 20260509084658 | 16 | 6 | 0.0 | 1.6 | 0.00 | 0.00 | 0.00 | 91 | 1019.8 |
| 20260509084154 | 16 | 250 | 1.6 | 4.8 | 0.00 | 0.00 | 0.00 | 91 | 1019.8 |
| 20260509083653 | 16 | 55 | 0.0 | 3.2 | 0.00 | 0.00 | 0.00 | 91 | 1019.5 |
| 20260509083148 | 16 | 307 | 0.0 | 3.2 | 0.00 | 0.00 | 0.00 | 92 | 1019.3 |
| 20260509082646 | 16 | 326 | 0.0 | 3.2 | 0.00 | 0.00 | 0.00 | 92 | 1019.7 |
| 20260509082142 | 16 | 292 | 3.2 | 4.8 | 0.00 | 0.00 | 0.00 | 92 | 1019.4 |
| 20260509081639 | 16 | 26 | 3.2 | 3.2 | 0.00 | 0.00 | 0.00 | 91 | 1019.4 |
| 20260509081137 | 16 | 74 | 0.0 | 1.6 | 0.00 | 0.00 | 0.00 | 90 | 1019.4 |
| 20260509080635 | 16 | 300 | 0.0 | 3.2 | 0.00 | 0.00 | 0.00 | 90 | 1019.1 |
| 20260509080132 | 16 | 276 | 0.0 | 3.2 | 0.00 | 0.00 | 0.00 | 90 | 1019.4 |
| 20260509075630 | 16 | 273 | 0.0 | 1.6 | 0.00 | 0.00 | 0.00 | 90 | 1019.2 |
| 20260509075128 | 16 | 323 | 1.6 | 3.2 | 0.00 | 0.00 | 0.00 | 90 | 1019.2 |
| 20260509074624 | 16 | 274 | 0.0 | 3.2 | 0.00 | 0.00 | 0.00 | 90 | 1019.1 |
| 20260509074121 | 16 | 5 | 3.2 | 3.2 | 0.00 | 0.00 | 0.00 | 90 | 1019.2 |
| 20260509073618 | 16 | 328 | 0.0 | 1.6 | 0.00 | 0.00 | 0.00 | 89 | 1019.1 |
| 20260509073114 | 16 | 318 | 3.2 | 3.2 | 0.00 | 0.00 | 0.00 | 90 | 1019.2 |
| 20260509072611 | 16 | 314 | 3.2 | 4.8 | 0.00 | 0.00 | 0.00 | 90 | 1019.0 |
| 20260509072108 | 16 | 301 | 1.6 | 3.2 | 0.00 | 0.00 | 0.00 | 89 | 1018.9 |
| 20260509071604 | 16 | 22 | 1.6 | 3.2 | 0.00 | 0.00 | 0.00 | 89 | 1019.0 |
| 20260509071102 | 17 | 334 | 0.0 | 3.2 | 0.00 | 0.00 | 0.00 | 89 | 1019.1 |
| 20260509070559 | 17 | 36 | 1.6 | 3.2 | 0.00 | 0.00 | 0.00 | 89 | 1018.8 |
| 20260509070055 | 17 | 44 | 0.0 | 3.2 | 0.00 | 0.00 | 0.00 | 89 | 1019.0 |
| 20260509065550 | 17 | 322 | 0.0 | 3.2 | 0.00 | 0.00 | 0.00 | 89 | 1019.0 |
| 20260509065047 | 16 | 0 | 0.0 | 4.8 | 0.00 | 0.00 | 0.00 | 89 | 1018.9 |
| 20260509064544 | 16 | 19 | 0.0 | 3.2 | 0.00 | 0.00 | 0.00 | 89 | 1018.9 |
| 20260509064042 | 16 | 17 | 1.6 | 3.2 | 0.00 | 0.00 | 0.00 | 90 | 1018.6 |
| 20260509063537 | 16 | 36 | 1.6 | 1.6 | 0.00 | 0.00 | 0.00 | 89 | 1018.7 |
| 20260509063035 | 16 | 302 | 3.2 | 4.8 | 0.00 | 0.00 | 0.00 | 90 | 1019.0 |
| 20260509062532 | 16 | 329 | 0.0 | 3.2 | 0.00 | 0.00 | 0.00 | 90 | 1018.7 |
| 20260509062030 | 16 | 32 | 0.0 | 3.2 | 0.00 | 0.00 | 0.00 | 89 | 1018.9 |
| 20260509061526 | 16 | 299 | 4.8 | 4.8 | 0.00 | 0.00 | 0.00 | 90 | 1018.9 |
| 20260509061024 | 16 | 304 | 1.6 | 3.2 | 0.00 | 0.00 | 0.00 | 91 | 1018.6 |
| 20260509060521 | 16 | 32 | 0.0 | 1.6 | 0.00 | 0.00 | 0.00 | 90 | 1018.7 |
| 20260509060017 | 16 | 36 | 1.6 | 3.2 | 0.00 | 0.00 | 0.00 | 90 | 1018.8 |
| 20260509055512 | 16 | 59 | 3.2 | 3.2 | 0.00 | 0.00 | 0.00 | 90 | 1018.9 |
| 20260509055009 | 16 | 310 | 0.0 | 1.6 | 0.00 | 0.00 | 0.00 | 89 | 1018.7 |
| 20260509054505 | 16 | 298 | 1.6 | 3.2 | 0.00 | 0.00 | 0.00 | 90 | 1019.0 |
| 20260509054004 | 16 | 304 | 0.0 | 1.6 | 0.00 | 0.00 | 0.00 | 90 | 1019.1 |
| 20260509053502 | 16 | 38 | 0.0 | 0.0 | 0.00 | 0.00 | 0.00 | 90 | 1019.0 |
| 20260509052958 | 16 | 44 | 0.0 | 0.0 | 0.00 | 0.00 | 0.00 | 90 | 1019.1 |
| 20260509052456 | 17 | 110 | 0.0 | 1.6 | 0.00 | 0.00 | 0.00 | 89 | 1018.9 |
| 20260509051954 | 17 | 22 | 0.0 | 1.6 | 0.00 | 0.00 | 0.00 | 88 | 1019.1 |
| 20260509051451 | 17 | 36 | 0.0 | 3.2 | 0.00 | 0.00 | 0.00 | 88 | 1019.0 |
| 20260509050948 | 17 | 233 | 0.0 | 1.6 | 0.00 | 0.00 | 0.00 | 87 | 1019.2 |
| 20260509050444 | 17 | 336 | 0.0 | 3.2 | 0.00 | 0.00 | 0.00 | 87 | 1019.2 |
| 20260509045941 | 17 | 0 | 1.6 | 3.2 | 0.00 | 0.00 | 0.00 | 88 | 1019.0 |
| 20260509045439 | 17 | 348 | 1.6 | 3.2 | 0.00 | 0.00 | 0.00 | 88 | 1019.1 |
| 20260509044935 | 17 | 50 | 0.0 | 0.0 | 0.00 | 0.00 | 0.00 | 87 | 1019.3 |
| 20260509044434 | 17 | 343 | 3.2 | 4.8 | 0.00 | 0.00 | 0.00 | 88 | 1019.3 |
| 20260509043930 | 17 | 337 | 0.0 | 3.2 | 0.00 | 0.00 | 0.00 | 87 | 1019.4 |
| 20260509043426 | 17 | 312 | 3.2 | 4.8 | 0.00 | 0.00 | 0.00 | 87 | 1019.4 |
| 20260509042921 | 17 | 318 | 0.0 | 3.2 | 0.00 | 0.00 | 0.00 | 87 | 1019.2 |
| 20260509042419 | 17 | 301 | 3.2 | 3.2 | 0.00 | 0.00 | 0.00 | 87 | 1019.3 |
| 20260509041915 | 17 | 311 | 3.2 | 3.2 | 0.00 | 0.00 | 0.00 | 87 | 1019.4 |
| 20260509041412 | 17 | 345 | 3.2 | 3.2 | 0.00 | 0.00 | 0.00 | 87 | 1019.2 |
| 20260509040910 | 17 | 322 | 0.0 | 1.6 | 0.00 | 0.00 | 0.00 | 87 | 1019.3 |
| 20260509040408 | 17 | 70 | 3.2 | 3.2 | 0.00 | 0.00 | 0.00 | 87 | 1019.4 |
| 20260509035904 | 17 | 309 | 0.0 | 3.2 | 0.00 | 0.00 | 0.00 | 88 | 1019.4 |
| 20260509035401 | 17 | 329 | 0.0 | 1.6 | 0.00 | 0.00 | 0.00 | 88 | 1019.5 |
| 20260509034857 | 17 | 49 | 0.0 | 1.6 | 0.00 | 0.00 | 0.00 | 87 | 1019.3 |
| 20260509034355 | 17 | 302 | 1.6 | 3.2 | 0.00 | 0.00 | 0.00 | 87 | 1019.5 |
| 20260509033852 | 17 | 315 | 0.0 | 1.6 | 0.00 | 0.00 | 0.00 | 87 | 1019.7 |
| 20260509033350 | 17 | 324 | 0.0 | 3.2 | 0.00 | 0.00 | 0.00 | 86 | 1019.5 |
| 20260509032846 | 17 | 40 | 0.0 | 1.6 | 0.00 | 0.00 | 0.00 | 86 | 1019.7 |